ZEL weather

Bella Bella (Campbell Island) Airport
Bella Bella, British Columbia, Canada

Public forecast

Using degrees Celsius for public forecast. Weather courtesy of forecast.io.

Current aviation weather report (METAR) for Bella Bella (Campbell Island) Airport

Retrieved 2020/06/02 08:00 UTC (16 minutes ago):

CBBC 020800Z AUTO 16009G18KT 9SM -RA OVC031 09/07 A3004 RMK SLP175

Aviation forecast (TAF) for Bella Bella (Campbell Island) Airport

Forecast is more than 6 hours old.

Retrieved 2020-06-02 01:00 UTC (7 hours ago):

TAF CBBC 020038Z 0201/0205 18008KT P6SM -RA SCT020 OVC040 TEMPO 0201/0205 4SM -RA BR BKN015 OVC030 BECMG 0201/0203 19012G22KT RMK FCST BASED ON AUTO OBS NXT FCST WILL BE ISSUED AT 021245Z